메인 페이지
METAR-TAF:

METAR-TAF

공항 :

피츠버그 국제공항

피츠버그, 펜실베이니아, 미국

위도: 40-30-14N, 경도: 080-15-59W, 고도: 366m

현재 날씨관측

예보는 55분 전, 08:51시(UTC)에 발표되었습니다.
7kt
온도 13°C
습도 100%
기압 1014 hPa
시정: 11.3km
고도 600ft 상공 흐림

METAR: KPIT 150851Z 19007KT 7SM OVC006 13/13 A2994 RMK AO2 DZE49 SLP147 P0000 60001 T01330133 58018 $

시각: 05:46 (09:46 UTC)

예보

예보는 48분 전, 08:58시(UTC)에 발표되었습니다.
예보 대상 시간: 15일 09시부터 16일 12시까지 (UTC)
6kt
시정: 9.7km
고도 700ft 상공 흐림
약한이슬비, 박무
15일 1600시부터 (UTC)
10kt, 순간 최대 풍속 17kt
시정: 6.4km
고도 700ft 상공 흐림
약한소나기, 박무
15일 2100시부터 (UTC)
10kt, 순간 최대 풍속 20kt
시정: 10km
고도 1500ft 상공 구름 많음
시계 내 소나기
16일 0000시부터 (UTC)
10kt, 순간 최대 풍속 20kt
시정: 10km
고도 3500ft 상공 구름 많음
16일 0300시부터 (UTC)
서북서10kt
시정: 10km
고도 25000ft 상공 구름 조금

TAF: KPIT 150858Z 1509/1612 19006KT 6SM -DZ BR OVC007 FM151600 26010G17KT 4SM -SHRA BR OVC007 FM152100 28010G20KT P6SM VCSH BKN015 FM160000 28010G20KT P6SM BKN035 FM160300 30010KT P6SM FEW250

4,000개 이상의 공항 관측 자료 및 예보 (METAR 및 TAF 보고).

지도상에서 검색 가능한 기상관측소가 노란 점과 빨간 점으로 표시되어 있습니다.

기상관측소 명을 보려면 표시 위로 마우스를 이동하세요.

날씨 관측과 예보를 보려면 클릭하세요.

지도 변경 : 확대하려면 엑스 표시가 있는 녹색 버튼, 축소하려면 빼기 표시가 있는 녹색 버튼, 다음 페이지의 지도를 보려면 녹색 화살표를 클릭하세요.


METAR-TAF: